sensor_id;sensor_type;location;lat;lon;timestamp;P1;durP1;ratioP1;P2;durP2;ratioP2
17844;SDS011;9047;53.486;10.218;2022-12-11T00:00:42;20.30;;;9.35;;
17844;SDS011;9047;53.486;10.218;2022-12-11T00:03:11;18.50;;;9.07;;
17844;SDS011;9047;53.486;10.218;2022-12-11T00:05:40;18.42;;;9.65;;
17844;SDS011;9047;53.486;10.218;2022-12-11T00:08:11;20.83;;;9.88;;
17844;SDS011;9047;53.486;10.218;2022-12-11T00:10:39;21.45;;;10.13;;
17844;SDS011;9047;53.486;10.218;2022-12-11T00:13:13;19.20;;;9.65;;
17844;SDS011;9047;53.486;10.218;2022-12-11T00:15:42;20.48;;;9.55;;
17844;SDS011;9047;53.486;10.218;2022-12-11T00:18:10;20.00;;;9.20;;
17844;SDS011;9047;53.486;10.218;2022-12-11T00:20:39;20.33;;;9.45;;
17844;SDS011;9047;53.486;10.218;2022-12-11T00:23:06;21.25;;;9.80;;
17844;SDS011;9047;53.486;10.218;2022-12-11T00:25:39;19.35;;;9.38;;
17844;SDS011;9047;53.486;10.218;2022-12-11T00:28:08;21.58;;;9.88;;
17844;SDS011;9047;53.486;10.218;2022-12-11T00:30:37;19.48;;;9.40;;
17844;SDS011;9047;53.486;10.218;2022-12-11T00:33:06;19.48;;;8.95;;
17844;SDS011;9047;53.486;10.218;2022-12-11T00:35:36;21.98;;;10.27;;
17844;SDS011;9047;53.486;10.218;2022-12-11T00:38:04;18.85;;;8.82;;
17844;SDS011;9047;53.486;10.218;2022-12-11T00:40:32;18.48;;;9.38;;
17844;SDS011;9047;53.486;10.218;2022-12-11T00:43:01;18.70;;;9.38;;
17844;SDS011;9047;53.486;10.218;2022-12-11T00:45:37;21.40;;;9.80;;
17844;SDS011;9047;53.486;10.218;2022-12-11T00:48:07;19.08;;;9.45;;
17844;SDS011;9047;53.486;10.218;2022-12-11T00:50:35;21.67;;;9.95;;
17844;SDS011;9047;53.486;10.218;2022-12-11T00:53:05;20.30;;;9.98;;
17844;SDS011;9047;53.486;10.218;2022-12-11T00:55:35;19.95;;;9.40;;
17844;SDS011;9047;53.486;10.218;2022-12-11T00:58:07;18.63;;;8.75;;
17844;SDS011;9047;53.486;10.218;2022-12-11T01:00:37;17.13;;;8.43;;
17844;SDS011;9047;53.486;10.218;2022-12-11T01:03:05;21.80;;;9.77;;
17844;SDS011;9047;53.486;10.218;2022-12-11T01:05:32;18.92;;;9.25;;
17844;SDS011;9047;53.486;10.218;2022-12-11T01:08:16;17.05;;;8.43;;
17844;SDS011;9047;53.486;10.218;2022-12-11T01:10:46;20.75;;;9.48;;
17844;SDS011;9047;53.486;10.218;2022-12-11T01:13:14;20.48;;;9.30;;
17844;SDS011;9047;53.486;10.218;2022-12-11T01:15:43;21.00;;;9.77;;
17844;SDS011;9047;53.486;10.218;2022-12-11T01:18:11;19.05;;;9.50;;
17844;SDS011;9047;53.486;10.218;2022-12-11T01:20:40;20.70;;;10.05;;
17844;SDS011;9047;53.486;10.218;2022-12-11T01:23:09;19.38;;;9.25;;
17844;SDS011;9047;53.486;10.218;2022-12-11T01:25:38;18.58;;;9.38;;
17844;SDS011;9047;53.486;10.218;2022-12-11T01:28:06;20.42;;;9.57;;
17844;SDS011;9047;53.486;10.218;2022-12-11T01:30:36;18.33;;;9.15;;
17844;SDS011;9047;53.486;10.218;2022-12-11T01:33:05;19.17;;;9.25;;
17844;SDS011;9047;53.486;10.218;2022-12-11T01:35:32;20.33;;;9.13;;
17844;SDS011;9047;53.486;10.218;2022-12-11T01:37:59;18.35;;;8.77;;
17844;SDS011;9047;53.486;10.218;2022-12-11T01:40:27;20.02;;;9.50;;
17844;SDS011;9047;53.486;10.218;2022-12-11T01:42:56;18.45;;;8.98;;
17844;SDS011;9047;53.486;10.218;2022-12-11T01:45:24;19.55;;;8.93;;
17844;SDS011;9047;53.486;10.218;2022-12-11T01:48:05;20.40;;;9.15;;
17844;SDS011;9047;53.486;10.218;2022-12-11T01:50:37;20.08;;;8.82;;
17844;SDS011;9047;53.486;10.218;2022-12-11T01:53:07;22.33;;;10.07;;
17844;SDS011;9047;53.486;10.218;2022-12-11T01:55:39;20.50;;;9.52;;
17844;SDS011;9047;53.486;10.218;2022-12-11T01:58:10;22.48;;;10.32;;
17844;SDS011;9047;53.486;10.218;2022-12-11T02:00:38;18.08;;;9.25;;
17844;SDS011;9047;53.486;10.218;2022-12-11T02:03:06;20.73;;;9.70;;
17844;SDS011;9047;53.486;10.218;2022-12-11T02:05:34;21.60;;;10.20;;
17844;SDS011;9047;53.486;10.218;2022-12-11T02:08:02;20.48;;;9.90;;
17844;SDS011;9047;53.486;10.218;2022-12-11T02:10:34;19.90;;;9.50;;
17844;SDS011;9047;53.486;10.218;2022-12-11T02:13:16;20.10;;;10.27;;
17844;SDS011;9047;53.486;10.218;2022-12-11T02:15:49;21.85;;;10.30;;
17844;SDS011;9047;53.486;10.218;2022-12-11T02:18:26;19.23;;;9.48;;
17844;SDS011;9047;53.486;10.218;2022-12-11T02:20:59;20.92;;;10.07;;
17844;SDS011;9047;53.486;10.218;2022-12-11T02:23:52;21.67;;;10.30;;
17844;SDS011;9047;53.486;10.218;2022-12-11T02:26:32;23.92;;;10.55;;
17844;SDS011;9047;53.486;10.218;2022-12-11T02:29:15;20.98;;;10.00;;
17844;SDS011;9047;53.486;10.218;2022-12-11T02:31:46;22.38;;;10.98;;
17844;SDS011;9047;53.486;10.218;2022-12-11T02:34:20;21.67;;;10.02;;
17844;SDS011;9047;53.486;10.218;2022-12-11T02:36:53;20.55;;;10.63;;
17844;SDS011;9047;53.486;10.218;2022-12-11T02:39:27;20.77;;;9.75;;
17844;SDS011;9047;53.486;10.218;2022-12-11T02:41:56;21.00;;;9.98;;
17844;SDS011;9047;53.486;10.218;2022-12-11T02:44:27;21.17;;;10.55;;
17844;SDS011;9047;53.486;10.218;2022-12-11T02:46:58;21.88;;;10.80;;
17844;SDS011;9047;53.486;10.218;2022-12-11T02:49:28;18.75;;;9.50;;
17844;SDS011;9047;53.486;10.218;2022-12-11T02:51:59;21.17;;;9.63;;
17844;SDS011;9047;53.486;10.218;2022-12-11T02:54:29;19.58;;;9.18;;
17844;SDS011;9047;53.486;10.218;2022-12-11T02:57:02;17.70;;;9.25;;
17844;SDS011;9047;53.486;10.218;2022-12-11T02:59:38;20.10;;;9.68;;
17844;SDS011;9047;53.486;10.218;2022-12-11T03:02:10;19.70;;;9.45;;
17844;SDS011;9047;53.486;10.218;2022-12-11T03:04:43;21.70;;;10.05;;
17844;SDS011;9047;53.486;10.218;2022-12-11T03:07:12;20.98;;;10.48;;
17844;SDS011;9047;53.486;10.218;2022-12-11T03:09:44;20.98;;;9.52;;
17844;SDS011;9047;53.486;10.218;2022-12-11T03:12:13;20.20;;;9.80;;
17844;SDS011;9047;53.486;10.218;2022-12-11T03:14:45;21.15;;;9.82;;
17844;SDS011;9047;53.486;10.218;2022-12-11T03:17:18;23.92;;;10.68;;
17844;SDS011;9047;53.486;10.218;2022-12-11T03:19:50;20.05;;;10.00;;
17844;SDS011;9047;53.486;10.218;2022-12-11T03:22:29;24.15;;;11.52;;
17844;SDS011;9047;53.486;10.218;2022-12-11T03:25:02;23.13;;;10.95;;
17844;SDS011;9047;53.486;10.218;2022-12-11T03:27:37;21.80;;;10.77;;
17844;SDS011;9047;53.486;10.218;2022-12-11T03:30:16;20.70;;;10.02;;
17844;SDS011;9047;53.486;10.218;2022-12-11T03:32:48;19.17;;;10.02;;
17844;SDS011;9047;53.486;10.218;2022-12-11T03:35:21;21.38;;;10.80;;
17844;SDS011;9047;53.486;10.218;2022-12-11T03:37:53;19.45;;;9.85;;
17844;SDS011;9047;53.486;10.218;2022-12-11T03:40:25;20.05;;;10.57;;
17844;SDS011;9047;53.486;10.218;2022-12-11T03:42:57;18.25;;;9.90;;
17844;SDS011;9047;53.486;10.218;2022-12-11T03:45:30;18.83;;;9.80;;
17844;SDS011;9047;53.486;10.218;2022-12-11T03:47:59;18.67;;;9.80;;
17844;SDS011;9047;53.486;10.218;2022-12-11T03:50:28;19.00;;;9.90;;
17844;SDS011;9047;53.486;10.218;2022-12-11T03:52:59;18.92;;;9.88;;
17844;SDS011;9047;53.486;10.218;2022-12-11T03:55:27;21.10;;;10.27;;
17844;SDS011;9047;53.486;10.218;2022-12-11T03:57:56;20.15;;;10.10;;
17844;SDS011;9047;53.486;10.218;2022-12-11T04:00:23;18.90;;;10.10;;
17844;SDS011;9047;53.486;10.218;2022-12-11T04:02:52;21.55;;;10.45;;
17844;SDS011;9047;53.486;10.218;2022-12-11T04:05:37;18.55;;;10.05;;
17844;SDS011;9047;53.486;10.218;2022-12-11T04:08:04;19.65;;;10.05;;
17844;SDS011;9047;53.486;10.218;2022-12-11T04:10:32;20.63;;;10.07;;
17844;SDS011;9047;53.486;10.218;2022-12-11T04:13:07;21.08;;;10.30;;
17844;SDS011;9047;53.486;10.218;2022-12-11T04:15:34;20.13;;;10.18;;
17844;SDS011;9047;53.486;10.218;2022-12-11T04:18:03;18.52;;;9.52;;
17844;SDS011;9047;53.486;10.218;2022-12-11T04:20:48;19.17;;;10.00;;
17844;SDS011;9047;53.486;10.218;2022-12-11T04:23:35;20.40;;;10.02;;
17844;SDS011;9047;53.486;10.218;2022-12-11T04:26:19;22.92;;;10.70;;
17844;SDS011;9047;53.486;10.218;2022-12-11T04:28:47;20.85;;;10.88;;
17844;SDS011;9047;53.486;10.218;2022-12-11T04:31:15;20.17;;;10.07;;
17844;SDS011;9047;53.486;10.218;2022-12-11T04:33:46;20.20;;;9.80;;
17844;SDS011;9047;53.486;10.218;2022-12-11T04:36:15;22.38;;;10.30;;
17844;SDS011;9047;53.486;10.218;2022-12-11T04:38:43;20.15;;;10.20;;
17844;SDS011;9047;53.486;10.218;2022-12-11T04:41:11;21.85;;;9.90;;
17844;SDS011;9047;53.486;10.218;2022-12-11T04:43:41;19.40;;;9.85;;
17844;SDS011;9047;53.486;10.218;2022-12-11T04:46:11;20.48;;;10.05;;
17844;SDS011;9047;53.486;10.218;2022-12-11T04:48:39;20.80;;;10.00;;
17844;SDS011;9047;53.486;10.218;2022-12-11T04:51:08;20.42;;;9.90;;
17844;SDS011;9047;53.486;10.218;2022-12-11T04:53:35;19.75;;;10.07;;
17844;SDS011;9047;53.486;10.218;2022-12-11T04:56:03;21.98;;;10.55;;
17844;SDS011;9047;53.486;10.218;2022-12-11T04:58:33;22.02;;;10.73;;
17844;SDS011;9047;53.486;10.218;2022-12-11T05:01:05;23.17;;;10.98;;
17844;SDS011;9047;53.486;10.218;2022-12-11T05:03:33;19.80;;;9.93;;
17844;SDS011;9047;53.486;10.218;2022-12-11T05:06:01;19.83;;;10.75;;
17844;SDS011;9047;53.486;10.218;2022-12-11T05:08:32;21.23;;;11.02;;
17844;SDS011;9047;53.486;10.218;2022-12-11T05:11:01;22.77;;;11.10;;
17844;SDS011;9047;53.486;10.218;2022-12-11T05:13:31;20.42;;;10.70;;
17844;SDS011;9047;53.486;10.218;2022-12-11T05:15:59;20.75;;;10.25;;
17844;SDS011;9047;53.486;10.218;2022-12-11T05:18:30;20.35;;;10.13;;
17844;SDS011;9047;53.486;10.218;2022-12-11T05:20:59;17.98;;;9.55;;
17844;SDS011;9047;53.486;10.218;2022-12-11T05:23:29;18.23;;;9.95;;
17844;SDS011;9047;53.486;10.218;2022-12-11T05:26:00;17.48;;;9.45;;
17844;SDS011;9047;53.486;10.218;2022-12-11T05:28:29;18.38;;;9.73;;
17844;SDS011;9047;53.486;10.218;2022-12-11T05:30:58;16.90;;;9.07;;
17844;SDS011;9047;53.486;10.218;2022-12-11T05:33:28;21.33;;;10.38;;
17844;SDS011;9047;53.486;10.218;2022-12-11T05:35:58;19.33;;;9.95;;
17844;SDS011;9047;53.486;10.218;2022-12-11T05:38:27;19.40;;;9.77;;
17844;SDS011;9047;53.486;10.218;2022-12-11T05:40:57;18.80;;;9.48;;
17844;SDS011;9047;53.486;10.218;2022-12-11T05:43:25;22.10;;;10.88;;
17844;SDS011;9047;53.486;10.218;2022-12-11T05:45:55;21.45;;;10.10;;
17844;SDS011;9047;53.486;10.218;2022-12-11T05:48:32;21.75;;;10.07;;
17844;SDS011;9047;53.486;10.218;2022-12-11T05:51:00;21.33;;;10.55;;
17844;SDS011;9047;53.486;10.218;2022-12-11T05:53:28;20.92;;;10.32;;
17844;SDS011;9047;53.486;10.218;2022-12-11T05:56:01;19.45;;;10.18;;
17844;SDS011;9047;53.486;10.218;2022-12-11T05:58:29;19.77;;;10.05;;
17844;SDS011;9047;53.486;10.218;2022-12-11T06:00:56;21.45;;;10.07;;
17844;SDS011;9047;53.486;10.218;2022-12-11T06:03:23;20.90;;;10.13;;
17844;SDS011;9047;53.486;10.218;2022-12-11T06:05:52;20.20;;;10.02;;
17844;SDS011;9047;53.486;10.218;2022-12-11T06:08:19;18.45;;;9.88;;
17844;SDS011;9047;53.486;10.218;2022-12-11T06:10:47;20.42;;;9.90;;
17844;SDS011;9047;53.486;10.218;2022-12-11T06:13:16;18.95;;;10.27;;
17844;SDS011;9047;53.486;10.218;2022-12-11T06:15:43;21.67;;;10.65;;
17844;SDS011;9047;53.486;10.218;2022-12-11T06:18:11;20.92;;;10.52;;
17844;SDS011;9047;53.486;10.218;2022-12-11T06:20:40;20.67;;;9.93;;
17844;SDS011;9047;53.486;10.218;2022-12-11T06:23:07;22.35;;;10.50;;
17844;SDS011;9047;53.486;10.218;2022-12-11T06:25:36;22.05;;;10.40;;
17844;SDS011;9047;53.486;10.218;2022-12-11T06:28:05;20.10;;;10.10;;
17844;SDS011;9047;53.486;10.218;2022-12-11T06:30:34;23.40;;;10.70;;
17844;SDS011;9047;53.486;10.218;2022-12-11T06:33:01;20.55;;;10.32;;
17844;SDS011;9047;53.486;10.218;2022-12-11T06:35:31;21.33;;;10.18;;
17844;SDS011;9047;53.486;10.218;2022-12-11T06:37:58;27.00;;;12.48;;
17844;SDS011;9047;53.486;10.218;2022-12-11T06:40:26;27.00;;;12.40;;
17844;SDS011;9047;53.486;10.218;2022-12-11T06:42:53;28.20;;;12.43;;
17844;SDS011;9047;53.486;10.218;2022-12-11T06:45:20;26.20;;;11.68;;
17844;SDS011;9047;53.486;10.218;2022-12-11T06:47:49;23.58;;;11.27;;
17844;SDS011;9047;53.486;10.218;2022-12-11T06:50:17;21.38;;;9.57;;
17844;SDS011;9047;53.486;10.218;2022-12-11T06:52:44;22.60;;;10.48;;
17844;SDS011;9047;53.486;10.218;2022-12-11T06:55:14;22.48;;;10.98;;
17844;SDS011;9047;53.486;10.218;2022-12-11T06:57:42;24.13;;;11.05;;
17844;SDS011;9047;53.486;10.218;2022-12-11T07:00:10;25.77;;;11.05;;
17844;SDS011;9047;53.486;10.218;2022-12-11T07:02:40;24.88;;;10.68;;
17844;SDS011;9047;53.486;10.218;2022-12-11T07:05:09;24.33;;;10.77;;
17844;SDS011;9047;53.486;10.218;2022-12-11T07:07:37;24.60;;;11.35;;
17844;SDS011;9047;53.486;10.218;2022-12-11T07:10:04;24.88;;;11.18;;
17844;SDS011;9047;53.486;10.218;2022-12-11T07:12:32;23.10;;;10.77;;
17844;SDS011;9047;53.486;10.218;2022-12-11T07:15:00;23.88;;;10.60;;
17844;SDS011;9047;53.486;10.218;2022-12-11T07:17:28;24.17;;;9.93;;
17844;SDS011;9047;53.486;10.218;2022-12-11T07:19:57;27.83;;;11.10;;
17844;SDS011;9047;53.486;10.218;2022-12-11T07:22:26;24.92;;;10.93;;
17844;SDS011;9047;53.486;10.218;2022-12-11T07:24:54;25.80;;;10.82;;
17844;SDS011;9047;53.486;10.218;2022-12-11T07:27:21;24.30;;;10.70;;
17844;SDS011;9047;53.486;10.218;2022-12-11T07:29:49;26.33;;;11.05;;
17844;SDS011;9047;53.486;10.218;2022-12-11T07:32:16;25.83;;;11.15;;
17844;SDS011;9047;53.486;10.218;2022-12-11T07:34:47;24.63;;;10.75;;
17844;SDS011;9047;53.486;10.218;2022-12-11T07:37:16;24.73;;;11.15;;
17844;SDS011;9047;53.486;10.218;2022-12-11T07:39:46;25.33;;;11.07;;
17844;SDS011;9047;53.486;10.218;2022-12-11T07:42:14;26.52;;;11.25;;
17844;SDS011;9047;53.486;10.218;2022-12-11T07:44:43;25.38;;;11.75;;
17844;SDS011;9047;53.486;10.218;2022-12-11T07:47:10;28.42;;;11.57;;
17844;SDS011;9047;53.486;10.218;2022-12-11T07:49:38;27.65;;;11.70;;
17844;SDS011;9047;53.486;10.218;2022-12-11T07:52:05;27.85;;;11.18;;
17844;SDS011;9047;53.486;10.218;2022-12-11T07:54:32;24.02;;;10.80;;
17844;SDS011;9047;53.486;10.218;2022-12-11T07:57:01;25.42;;;11.50;;
17844;SDS011;9047;53.486;10.218;2022-12-11T07:59:27;28.60;;;11.88;;
17844;SDS011;9047;53.486;10.218;2022-12-11T08:01:55;24.45;;;10.95;;
17844;SDS011;9047;53.486;10.218;2022-12-11T08:04:22;27.40;;;11.52;;
17844;SDS011;9047;53.486;10.218;2022-12-11T08:06:49;29.50;;;12.43;;
17844;SDS011;9047;53.486;10.218;2022-12-11T08:09:17;29.75;;;12.15;;
17844;SDS011;9047;53.486;10.218;2022-12-11T08:11:48;27.88;;;11.82;;
17844;SDS011;9047;53.486;10.218;2022-12-11T08:14:17;26.85;;;12.15;;
17844;SDS011;9047;53.486;10.218;2022-12-11T08:16:45;30.13;;;12.82;;
17844;SDS011;9047;53.486;10.218;2022-12-11T08:19:13;30.77;;;12.98;;
17844;SDS011;9047;53.486;10.218;2022-12-11T08:21:43;27.55;;;12.35;;
17844;SDS011;9047;53.486;10.218;2022-12-11T08:24:11;29.90;;;12.85;;
17844;SDS011;9047;53.486;10.218;2022-12-11T08:26:40;27.00;;;12.05;;
17844;SDS011;9047;53.486;10.218;2022-12-11T08:29:08;27.73;;;11.20;;
17844;SDS011;9047;53.486;10.218;2022-12-11T08:31:37;27.25;;;11.90;;
17844;SDS011;9047;53.486;10.218;2022-12-11T08:34:04;25.35;;;11.43;;
17844;SDS011;9047;53.486;10.218;2022-12-11T08:36:38;27.70;;;12.02;;
17844;SDS011;9047;53.486;10.218;2022-12-11T08:39:05;27.35;;;12.02;;
17844;SDS011;9047;53.486;10.218;2022-12-11T08:41:34;27.50;;;12.45;;
17844;SDS011;9047;53.486;10.218;2022-12-11T08:44:01;28.23;;;12.52;;
17844;SDS011;9047;53.486;10.218;2022-12-11T08:46:30;29.80;;;12.48;;
17844;SDS011;9047;53.486;10.218;2022-12-11T08:49:01;29.27;;;12.35;;
17844;SDS011;9047;53.486;10.218;2022-12-11T08:51:28;26.85;;;12.45;;
17844;SDS011;9047;53.486;10.218;2022-12-11T08:53:57;29.33;;;12.43;;
17844;SDS011;9047;53.486;10.218;2022-12-11T08:56:26;31.88;;;13.73;;
17844;SDS011;9047;53.486;10.218;2022-12-11T08:58:58;31.50;;;13.18;;
17844;SDS011;9047;53.486;10.218;2022-12-11T09:01:26;29.73;;;13.40;;
17844;SDS011;9047;53.486;10.218;2022-12-11T09:03:54;29.65;;;13.02;;
17844;SDS011;9047;53.486;10.218;2022-12-11T09:06:24;28.90;;;12.50;;
17844;SDS011;9047;53.486;10.218;2022-12-11T09:08:53;30.10;;;12.65;;
17844;SDS011;9047;53.486;10.218;2022-12-11T09:11:22;25.67;;;11.80;;
17844;SDS011;9047;53.486;10.218;2022-12-11T09:13:52;25.13;;;12.67;;
17844;SDS011;9047;53.486;10.218;2022-12-11T09:16:20;25.48;;;11.38;;
17844;SDS011;9047;53.486;10.218;2022-12-11T09:18:49;23.63;;;11.32;;
17844;SDS011;9047;53.486;10.218;2022-12-11T09:21:19;25.05;;;10.90;;
17844;SDS011;9047;53.486;10.218;2022-12-11T09:23:54;24.98;;;10.38;;
17844;SDS011;9047;53.486;10.218;2022-12-11T09:26:23;21.98;;;9.98;;
17844;SDS011;9047;53.486;10.218;2022-12-11T09:28:50;20.10;;;9.98;;
17844;SDS011;9047;53.486;10.218;2022-12-11T09:31:19;20.08;;;10.00;;
17844;SDS011;9047;53.486;10.218;2022-12-11T09:33:49;22.05;;;10.00;;
17844;SDS011;9047;53.486;10.218;2022-12-11T09:36:17;21.45;;;9.98;;
17844;SDS011;9047;53.486;10.218;2022-12-11T09:38:44;21.85;;;10.20;;
17844;SDS011;9047;53.486;10.218;2022-12-11T09:44:17;19.33;;;9.27;;
17844;SDS011;9047;53.486;10.218;2022-12-11T09:46:51;18.92;;;8.93;;
17844;SDS011;9047;53.486;10.218;2022-12-11T09:49:26;17.85;;;8.35;;
17844;SDS011;9047;53.486;10.218;2022-12-11T09:52:08;17.88;;;8.45;;
17844;SDS011;9047;53.486;10.218;2022-12-11T09:54:40;19.13;;;8.68;;
17844;SDS011;9047;53.486;10.218;2022-12-11T09:57:16;19.13;;;8.52;;
17844;SDS011;9047;53.486;10.218;2022-12-11T09:59:54;17.45;;;8.80;;
17844;SDS011;9047;53.486;10.218;2022-12-11T10:02:54;18.65;;;8.90;;
17844;SDS011;9047;53.486;10.218;2022-12-11T10:05:34;18.08;;;8.75;;
17844;SDS011;9047;53.486;10.218;2022-12-11T10:08:11;15.68;;;8.15;;
17844;SDS011;9047;53.486;10.218;2022-12-11T10:10:45;18.52;;;8.77;;
17844;SDS011;9047;53.486;10.218;2022-12-11T10:13:24;17.63;;;8.75;;
17844;SDS011;9047;53.486;10.218;2022-12-11T10:15:59;16.83;;;8.40;;
17844;SDS011;9047;53.486;10.218;2022-12-11T10:18:35;17.35;;;8.07;;
17844;SDS011;9047;53.486;10.218;2022-12-11T10:21:03;18.17;;;8.35;;
17844;SDS011;9047;53.486;10.218;2022-12-11T10:23:33;16.65;;;8.07;;
17844;SDS011;9047;53.486;10.218;2022-12-11T10:26:06;15.45;;;7.82;;
17844;SDS011;9047;53.486;10.218;2022-12-11T10:28:41;16.15;;;7.85;;
17844;SDS011;9047;53.486;10.218;2022-12-11T10:31:10;14.20;;;7.53;;
17844;SDS011;9047;53.486;10.218;2022-12-11T10:33:45;18.45;;;8.55;;
17844;SDS011;9047;53.486;10.218;2022-12-11T10:36:19;18.45;;;8.57;;
17844;SDS011;9047;53.486;10.218;2022-12-11T10:38:56;14.07;;;7.50;;
17844;SDS011;9047;53.486;10.218;2022-12-11T10:41:31;15.23;;;7.57;;
17844;SDS011;9047;53.486;10.218;2022-12-11T10:44:13;16.70;;;7.95;;
17844;SDS011;9047;53.486;10.218;2022-12-11T10:46:43;16.00;;;8.00;;
17844;SDS011;9047;53.486;10.218;2022-12-11T10:49:24;15.30;;;8.05;;
17844;SDS011;9047;53.486;10.218;2022-12-11T10:51:54;17.65;;;8.20;;
17844;SDS011;9047;53.486;10.218;2022-12-11T10:54:28;15.68;;;7.97;;
17844;SDS011;9047;53.486;10.218;2022-12-11T10:56:57;14.27;;;7.00;;
17844;SDS011;9047;53.486;10.218;2022-12-11T10:59:30;16.02;;;8.20;;
17844;SDS011;9047;53.486;10.218;2022-12-11T11:02:00;17.83;;;8.38;;
17844;SDS011;9047;53.486;10.218;2022-12-11T11:04:28;19.90;;;8.88;;
17844;SDS011;9047;53.486;10.218;2022-12-11T11:07:01;16.02;;;8.93;;
17844;SDS011;9047;53.486;10.218;2022-12-11T11:09:30;17.63;;;8.82;;
17844;SDS011;9047;53.486;10.218;2022-12-11T11:11:59;20.55;;;9.38;;
17844;SDS011;9047;53.486;10.218;2022-12-11T11:14:28;15.57;;;8.05;;
17844;SDS011;9047;53.486;10.218;2022-12-11T11:16:56;17.25;;;8.40;;
17844;SDS011;9047;53.486;10.218;2022-12-11T11:19:28;16.88;;;8.27;;
17844;SDS011;9047;53.486;10.218;2022-12-11T11:21:58;17.80;;;8.73;;
17844;SDS011;9047;53.486;10.218;2022-12-11T11:24:28;17.58;;;8.57;;
17844;SDS011;9047;53.486;10.218;2022-12-11T11:27:00;17.10;;;8.23;;
17844;SDS011;9047;53.486;10.218;2022-12-11T11:29:29;15.13;;;7.93;;
17844;SDS011;9047;53.486;10.218;2022-12-11T11:31:58;15.63;;;8.20;;
17844;SDS011;9047;53.486;10.218;2022-12-11T11:34:40;15.30;;;8.15;;
17844;SDS011;9047;53.486;10.218;2022-12-11T11:37:15;17.63;;;7.85;;
17844;SDS011;9047;53.486;10.218;2022-12-11T11:39:49;14.20;;;7.57;;
17844;SDS011;9047;53.486;10.218;2022-12-11T11:42:22;17.00;;;9.05;;
17844;SDS011;9047;53.486;10.218;2022-12-11T11:45:01;14.70;;;8.23;;
17844;SDS011;9047;53.486;10.218;2022-12-11T11:47:33;15.60;;;7.95;;
17844;SDS011;9047;53.486;10.218;2022-12-11T11:50:05;15.23;;;7.65;;
17844;SDS011;9047;53.486;10.218;2022-12-11T11:52:40;28.10;;;11.35;;
17844;SDS011;9047;53.486;10.218;2022-12-11T11:55:13;15.85;;;8.20;;
17844;SDS011;9047;53.486;10.218;2022-12-11T11:57:45;15.35;;;7.80;;
17844;SDS011;9047;53.486;10.218;2022-12-11T12:00:23;16.10;;;8.10;;
17844;SDS011;9047;53.486;10.218;2022-12-11T12:02:56;14.88;;;7.68;;
17844;SDS011;9047;53.486;10.218;2022-12-11T12:05:27;15.73;;;8.52;;
17844;SDS011;9047;53.486;10.218;2022-12-11T12:08:05;14.93;;;8.25;;
17844;SDS011;9047;53.486;10.218;2022-12-11T12:10:40;14.70;;;8.18;;
17844;SDS011;9047;53.486;10.218;2022-12-11T12:13:14;16.52;;;8.20;;
17844;SDS011;9047;53.486;10.218;2022-12-11T12:15:54;16.17;;;9.15;;
17844;SDS011;9047;53.486;10.218;2022-12-11T12:18:24;17.25;;;9.50;;
17844;SDS011;9047;53.486;10.218;2022-12-11T12:20:59;20.27;;;10.68;;
17844;SDS011;9047;53.486;10.218;2022-12-11T12:23:40;19.05;;;10.15;;
17844;SDS011;9047;53.486;10.218;2022-12-11T12:26:19;20.05;;;10.45;;
17844;SDS011;9047;53.486;10.218;2022-12-11T12:28:54;17.60;;;9.30;;
17844;SDS011;9047;53.486;10.218;2022-12-11T12:31:44;18.85;;;9.48;;
17844;SDS011;9047;53.486;10.218;2022-12-11T12:34:25;17.02;;;8.93;;
17844;SDS011;9047;53.486;10.218;2022-12-11T12:37:04;18.65;;;9.75;;
17844;SDS011;9047;53.486;10.218;2022-12-11T12:39:38;15.85;;;9.30;;
17844;SDS011;9047;53.486;10.218;2022-12-11T12:42:15;19.92;;;9.77;;
17844;SDS011;9047;53.486;10.218;2022-12-11T12:44:53;17.75;;;9.13;;
17844;SDS011;9047;53.486;10.218;2022-12-11T12:47:32;15.60;;;8.48;;
17844;SDS011;9047;53.486;10.218;2022-12-11T12:50:02;18.25;;;9.20;;
17844;SDS011;9047;53.486;10.218;2022-12-11T12:52:38;16.38;;;8.70;;
17844;SDS011;9047;53.486;10.218;2022-12-11T12:55:14;16.08;;;8.50;;
17844;SDS011;9047;53.486;10.218;2022-12-11T12:57:51;15.43;;;8.18;;
17844;SDS011;9047;53.486;10.218;2022-12-11T13:00:29;18.73;;;8.88;;
17844;SDS011;9047;53.486;10.218;2022-12-11T13:03:15;16.92;;;8.77;;
17844;SDS011;9047;53.486;10.218;2022-12-11T13:05:53;16.23;;;8.68;;
17844;SDS011;9047;53.486;10.218;2022-12-11T13:08:24;17.25;;;8.57;;
17844;SDS011;9047;53.486;10.218;2022-12-11T13:11:04;16.10;;;9.10;;
17844;SDS011;9047;53.486;10.218;2022-12-11T13:13:38;15.55;;;8.68;;
17844;SDS011;9047;53.486;10.218;2022-12-11T13:16:22;17.40;;;9.05;;
17844;SDS011;9047;53.486;10.218;2022-12-11T13:18:54;17.77;;;9.07;;
17844;SDS011;9047;53.486;10.218;2022-12-11T13:21:25;21.60;;;9.80;;
17844;SDS011;9047;53.486;10.218;2022-12-11T13:24:12;28.42;;;11.48;;
17844;SDS011;9047;53.486;10.218;2022-12-11T13:26:41;24.73;;;11.45;;
17844;SDS011;9047;53.486;10.218;2022-12-11T13:29:30;20.90;;;9.65;;
17844;SDS011;9047;53.486;10.218;2022-12-11T13:32:00;21.42;;;10.10;;
17844;SDS011;9047;53.486;10.218;2022-12-11T13:34:33;20.67;;;10.20;;
17844;SDS011;9047;53.486;10.218;2022-12-11T13:37:03;20.33;;;10.27;;
17844;SDS011;9047;53.486;10.218;2022-12-11T13:39:33;18.98;;;9.80;;
17844;SDS011;9047;53.486;10.218;2022-12-11T13:42:05;20.30;;;9.35;;
17844;SDS011;9047;53.486;10.218;2022-12-11T13:44:46;19.20;;;9.50;;
17844;SDS011;9047;53.486;10.218;2022-12-11T13:47:14;21.70;;;10.63;;
17844;SDS011;9047;53.486;10.218;2022-12-11T13:49:46;22.67;;;11.02;;
17844;SDS011;9047;53.486;10.218;2022-12-11T13:52:16;20.73;;;9.93;;
17844;SDS011;9047;53.486;10.218;2022-12-11T13:54:46;19.10;;;9.63;;
17844;SDS011;9047;53.486;10.218;2022-12-11T13:57:17;20.10;;;9.88;;
17844;SDS011;9047;53.486;10.218;2022-12-11T13:59:50;20.95;;;9.95;;
17844;SDS011;9047;53.486;10.218;2022-12-11T14:02:20;18.33;;;9.63;;
17844;SDS011;9047;53.486;10.218;2022-12-11T14:04:56;20.90;;;10.27;;
17844;SDS011;9047;53.486;10.218;2022-12-11T14:07:28;21.70;;;9.88;;
17844;SDS011;9047;53.486;10.218;2022-12-11T14:09:58;20.63;;;9.77;;
17844;SDS011;9047;53.486;10.218;2022-12-11T14:12:29;17.60;;;9.80;;
17844;SDS011;9047;53.486;10.218;2022-12-11T14:14:57;18.10;;;9.35;;
17844;SDS011;9047;53.486;10.218;2022-12-11T14:17:29;17.60;;;9.02;;
17844;SDS011;9047;53.486;10.218;2022-12-11T14:20:02;18.77;;;9.80;;
17844;SDS011;9047;53.486;10.218;2022-12-11T14:22:32;25.45;;;13.82;;
17844;SDS011;9047;53.486;10.218;2022-12-11T14:25:00;25.45;;;12.63;;
17844;SDS011;9047;53.486;10.218;2022-12-11T14:27:46;27.55;;;13.80;;
17844;SDS011;9047;53.486;10.218;2022-12-11T14:30:19;19.45;;;10.63;;
17844;SDS011;9047;53.486;10.218;2022-12-11T14:32:48;20.67;;;10.88;;
17844;SDS011;9047;53.486;10.218;2022-12-11T14:35:20;24.63;;;11.95;;
17844;SDS011;9047;53.486;10.218;2022-12-11T14:37:52;21.63;;;11.25;;
17844;SDS011;9047;53.486;10.218;2022-12-11T14:40:21;19.27;;;9.45;;
17844;SDS011;9047;53.486;10.218;2022-12-11T14:42:54;21.05;;;10.60;;
17844;SDS011;9047;53.486;10.218;2022-12-11T14:45:27;21.83;;;10.65;;
17844;SDS011;9047;53.486;10.218;2022-12-11T14:47:57;21.50;;;10.93;;
17844;SDS011;9047;53.486;10.218;2022-12-11T14:50:29;21.25;;;10.85;;
17844;SDS011;9047;53.486;10.218;2022-12-11T14:53:05;24.73;;;12.82;;
17844;SDS011;9047;53.486;10.218;2022-12-11T14:55:37;20.42;;;10.68;;